createdAt,value
2018-12-14T00:00:11.166Z,509.60
2018-12-14T00:02:39.545Z,511.23
2018-12-14T00:05:08.347Z,506.78
2018-12-14T00:07:36.752Z,508.95
2018-12-14T00:10:06.713Z,505.50
2018-12-14T00:12:35.116Z,501.80
2018-12-14T00:15:04.766Z,503.05
2018-12-14T00:17:33.223Z,502.10
2018-12-14T00:20:01.699Z,502.13
2018-12-14T00:22:31.145Z,502.35
2018-12-14T00:24:59.449Z,503.47
2018-12-14T00:30:24.435Z,503.50
2018-12-14T00:32:53.108Z,506.32
2018-12-14T00:35:22.552Z,497.43
2018-12-14T00:37:50.929Z,497.93
2018-12-14T00:40:19.993Z,493.75
2018-12-14T00:42:49.010Z,494.50
2018-12-14T00:45:17.316Z,496.53
2018-12-14T00:47:45.703Z,495.55
2018-12-14T00:50:14.066Z,500.05
2018-12-14T00:52:42.394Z,506.13
2018-12-14T00:55:10.806Z,500.25
2018-12-14T00:57:39.442Z,501.18
2018-12-14T01:00:09.592Z,507.82
2018-12-14T01:02:39.809Z,514.97
2018-12-14T01:05:08.301Z,500.07
2018-12-14T01:07:37.020Z,505.73
2018-12-14T01:10:06.100Z,500.35
2018-12-14T01:12:35.293Z,496.05
2018-12-14T01:15:04.750Z,505.52
2018-12-14T01:17:33.212Z,501.75
2018-12-14T01:20:01.572Z,497.33
2018-12-14T01:22:29.933Z,509.27
2018-12-14T01:24:58.613Z,505.10
2018-12-14T01:27:26.897Z,503.58
2018-12-14T01:29:55.571Z,502.58
2018-12-14T01:32:24.349Z,499.50
2018-12-14T01:34:52.668Z,503.57
2018-12-14T01:37:21.109Z,504.07
2018-12-14T01:39:49.449Z,504.90
2018-12-14T01:45:15.285Z,509.87
2018-12-14T01:47:43.739Z,504.20
2018-12-14T01:50:17.030Z,506.82
2018-12-14T01:52:45.631Z,512.67
2018-12-14T01:55:13.996Z,508.12
2018-12-14T01:57:42.906Z,512.27
2018-12-14T02:00:11.313Z,510.70
2018-12-14T02:02:39.773Z,514.32
2018-12-14T02:05:08.451Z,514.42
2018-12-14T02:07:36.853Z,514.50
2018-12-14T02:10:05.383Z,510.15
2018-12-14T02:12:33.727Z,512.00
2018-12-14T02:15:02.037Z,510.25
2018-12-14T02:17:30.440Z,514.63
2018-12-14T02:19:58.804Z,518.27
2018-12-14T02:22:27.448Z,513.30
2018-12-14T02:24:55.879Z,514.27
2018-12-14T02:27:24.249Z,516.95
2018-12-14T02:29:52.713Z,515.55
2018-12-14T02:32:21.002Z,512.10
2018-12-14T02:34:49.499Z,511.28
2018-12-14T02:37:18.016Z,520.52
2018-12-14T02:39:46.455Z,514.05
2018-12-14T02:42:19.248Z,512.65
2018-12-14T02:44:45.084Z,513.00
2018-12-14T02:47:13.377Z,511.00
2018-12-14T02:49:41.722Z,512.70
2018-12-14T02:52:10.880Z,508.20
2018-12-14T02:54:39.169Z,497.63
2018-12-14T02:57:08.083Z,496.60
2018-12-14T02:59:36.378Z,495.00
2018-12-14T03:02:05.415Z,497.00
2018-12-14T03:04:33.825Z,505.07
2018-12-14T03:07:02.274Z,506.07
2018-12-14T03:09:30.607Z,504.77
2018-12-14T03:11:59.567Z,505.93
2018-12-14T03:14:28.939Z,506.65
2018-12-14T03:16:59.271Z,510.07
2018-12-14T03:19:28.498Z,519.35
2018-12-14T03:21:57.385Z,511.35
2018-12-14T03:24:25.717Z,506.82
2018-12-14T03:26:54.048Z,510.80
2018-12-14T03:29:22.485Z,504.10
2018-12-14T03:31:51.054Z,502.23
2018-12-14T03:34:19.420Z,505.87
2018-12-14T03:36:47.831Z,503.77
2018-12-14T03:39:16.178Z,507.90
2018-12-14T03:41:44.597Z,504.70
2018-12-14T03:44:12.914Z,506.82
2018-12-14T03:46:41.782Z,514.02
2018-12-14T03:49:10.166Z,506.32
2018-12-14T03:51:38.552Z,516.60
2018-12-14T03:54:06.905Z,508.48
2018-12-14T03:56:35.271Z,507.77
2018-12-14T03:59:03.663Z,509.77
2018-12-14T04:01:32.192Z,514.13
2018-12-14T04:04:00.539Z,515.88
2018-12-14T04:06:28.976Z,509.77
2018-12-14T04:08:57.335Z,511.77
2018-12-14T04:11:26.983Z,510.87
2018-12-14T04:13:55.391Z,511.02
2018-12-14T04:16:23.824Z,512.00
2018-12-14T04:18:52.840Z,519.83
2018-12-14T04:21:21.626Z,519.42
2018-12-14T04:23:50.328Z,513.72
2018-12-14T04:26:18.705Z,511.88
2018-12-14T04:28:47.044Z,508.25
2018-12-14T04:31:15.450Z,508.98
2018-12-14T04:33:43.942Z,505.70
2018-12-14T04:36:12.293Z,511.95
2018-12-14T04:38:40.747Z,509.65
2018-12-14T04:41:09.148Z,510.07
2018-12-14T04:43:37.470Z,514.87
2018-12-14T04:46:05.854Z,514.60
2018-12-14T04:48:34.146Z,516.02
2018-12-14T04:51:02.705Z,508.30
2018-12-14T04:53:31.127Z,507.57
2018-12-14T04:55:59.796Z,504.77
2018-12-14T04:58:28.213Z,509.98
2018-12-14T05:00:58.047Z,503.45
2018-12-14T05:03:26.390Z,502.45
2018-12-14T05:05:54.722Z,503.27
2018-12-14T05:08:23.116Z,509.52
2018-12-14T05:10:51.475Z,507.25
2018-12-14T05:13:19.793Z,509.75
2018-12-14T05:15:48.173Z,505.20
2018-12-14T05:18:16.600Z,506.55
2018-12-14T05:20:44.902Z,506.37
2018-12-14T05:23:13.266Z,510.25
2018-12-14T05:25:41.620Z,502.83
2018-12-14T05:28:09.996Z,502.43
2018-12-14T05:30:38.671Z,502.88
2018-12-14T05:33:07.069Z,507.53
2018-12-14T05:38:34.800Z,503.62
2018-12-14T05:41:03.190Z,504.83
2018-12-14T05:43:31.536Z,503.18
2018-12-14T05:45:59.978Z,510.85
2018-12-14T05:48:28.341Z,506.20
2018-12-14T05:50:56.698Z,505.85
2018-12-14T05:53:25.234Z,508.83
2018-12-14T05:55:53.615Z,508.50
2018-12-14T05:58:22.265Z,518.05
2018-12-14T06:00:50.677Z,513.00
2018-12-14T06:03:19.000Z,513.95
2018-12-14T06:05:47.303Z,513.42
2018-12-14T06:08:16.707Z,514.03
2018-12-14T06:10:45.010Z,512.35
2018-12-14T06:13:13.393Z,509.70
2018-12-14T06:15:41.831Z,518.50
2018-12-14T06:18:10.166Z,513.97
2018-12-14T06:20:38.572Z,507.82
2018-12-14T06:23:06.916Z,509.80
2018-12-14T06:25:35.444Z,505.37
2018-12-14T06:28:03.868Z,511.85
2018-12-14T06:30:32.264Z,514.52
2018-12-14T06:33:01.436Z,509.48
2018-12-14T06:35:30.717Z,507.35
2018-12-14T06:37:59.076Z,506.37
2018-12-14T06:40:27.504Z,506.25
2018-12-14T06:42:55.843Z,510.07
2018-12-14T06:45:24.314Z,505.45
2018-12-14T06:47:52.724Z,516.65
2018-12-14T06:50:21.061Z,516.52
2018-12-14T06:52:49.982Z,513.05
2018-12-14T06:55:18.381Z,508.53
2018-12-14T06:57:46.703Z,515.05
2018-12-14T07:00:15.043Z,518.23
2018-12-14T07:02:43.465Z,514.05
2018-12-14T07:05:12.319Z,517.27
2018-12-14T07:07:41.677Z,518.48
2018-12-14T07:10:10.003Z,518.17
2018-12-14T07:12:38.390Z,511.05
2018-12-14T07:15:07.783Z,518.15
2018-12-14T07:17:36.131Z,517.65
2018-12-14T07:20:05.942Z,522.15
2018-12-14T07:22:34.326Z,525.85
2018-12-14T07:25:02.631Z,523.42
2018-12-14T07:27:31.685Z,522.30
2018-12-14T07:30:00.032Z,522.83
2018-12-14T07:32:28.360Z,523.28
2018-12-14T07:34:56.710Z,533.12
2018-12-14T07:37:25.066Z,534.52
2018-12-14T07:39:53.387Z,529.83
2018-12-14T07:42:21.813Z,535.63
2018-12-14T07:44:50.385Z,534.25
2018-12-14T07:50:17.943Z,545.97
2018-12-14T07:52:46.394Z,542.80
2018-12-14T07:55:15.538Z,546.48
2018-12-14T07:57:43.922Z,567.58
2018-12-14T08:00:12.463Z,641.75
2018-12-14T08:02:40.966Z,723.52
2018-12-14T08:05:09.329Z,728.23
2018-12-14T08:07:37.681Z,726.95
2018-12-14T08:10:06.576Z,715.00
2018-12-14T08:12:34.979Z,737.60
2018-12-14T08:15:03.824Z,725.80
2018-12-14T08:17:32.199Z,710.08
2018-12-14T08:20:00.721Z,758.13
2018-12-14T08:22:29.087Z,709.35
2018-12-14T08:24:57.459Z,637.80
2018-12-14T08:27:25.788Z,658.70
2018-12-14T08:29:54.140Z,697.65
2018-12-14T08:32:22.541Z,692.50
2018-12-14T08:34:51.418Z,631.37
2018-12-14T08:37:20.467Z,593.42
2018-12-14T08:39:48.767Z,579.02
2018-12-14T08:42:17.121Z,595.42
2018-12-14T08:44:46.265Z,602.23
2018-12-14T08:47:15.104Z,581.30
2018-12-14T08:49:43.412Z,578.10
2018-12-14T08:52:11.895Z,578.73
2018-12-14T08:54:40.317Z,570.65
2018-12-14T08:57:08.804Z,559.33
2018-12-14T08:59:37.191Z,553.47
2018-12-14T09:02:05.662Z,559.87
2018-12-14T09:04:34.102Z,558.50
2018-12-14T09:07:02.473Z,559.58
2018-12-14T09:09:30.899Z,561.05
2018-12-14T09:11:59.227Z,538.85
2018-12-14T09:14:28.115Z,527.65
2018-12-14T09:16:56.503Z,533.77
2018-12-14T09:19:25.849Z,528.60
2018-12-14T09:21:54.182Z,536.73
2018-12-14T09:24:23.376Z,529.58
2018-12-14T09:26:51.765Z,538.90
2018-12-14T09:29:20.335Z,537.40
2018-12-14T09:31:49.041Z,534.73
2018-12-14T09:34:17.397Z,531.45
2018-12-14T09:36:46.371Z,536.73
2018-12-14T09:39:14.759Z,533.45
2018-12-14T09:41:43.092Z,539.73
2018-12-14T09:44:11.547Z,549.90
2018-12-14T09:46:41.767Z,542.67
2018-12-14T09:49:10.162Z,535.42
2018-12-14T09:51:38.697Z,534.92
2018-12-14T09:54:07.055Z,530.83
2018-12-14T09:56:35.489Z,535.58
2018-12-14T09:59:03.979Z,535.65
2018-12-14T10:01:32.396Z,537.50
2018-12-14T10:04:00.819Z,540.45
2018-12-14T10:06:29.243Z,536.90
2018-12-14T10:08:57.702Z,540.10
2018-12-14T10:11:26.005Z,543.52
2018-12-14T10:14:00.669Z,545.42
2018-12-14T10:16:24.963Z,537.08
2018-12-14T10:18:54.389Z,549.92
2018-12-14T10:21:23.915Z,548.47
2018-12-14T10:23:52.300Z,563.42
2018-12-14T10:26:20.758Z,556.23
2018-12-14T10:28:49.138Z,556.67
2018-12-14T10:31:17.466Z,548.08
2018-12-14T10:33:45.779Z,553.08
2018-12-14T10:36:14.173Z,536.23
2018-12-14T10:38:43.240Z,531.20
2018-12-14T10:41:12.005Z,544.83
2018-12-14T10:43:40.349Z,534.42
2018-12-14T10:46:08.784Z,532.67
2018-12-14T10:48:37.159Z,569.70
2018-12-14T10:51:05.600Z,529.53
2018-12-14T10:53:34.960Z,524.30
2018-12-14T10:56:03.434Z,521.05
2018-12-14T10:58:31.743Z,520.12
2018-12-14T11:03:59.425Z,517.40
2018-12-14T11:06:28.657Z,524.23
2018-12-14T11:08:57.166Z,523.80
2018-12-14T11:11:25.550Z,515.10
2018-12-14T11:13:54.920Z,514.30
2018-12-14T11:16:23.326Z,517.80
2018-12-14T11:18:51.742Z,521.75
2018-12-14T11:21:20.087Z,515.10
2018-12-14T11:23:48.556Z,521.70
2018-12-14T11:26:16.927Z,517.95
2018-12-14T11:28:45.377Z,526.50
2018-12-14T11:31:13.852Z,529.30
2018-12-14T11:33:42.306Z,531.85
2018-12-14T11:36:10.752Z,526.02
2018-12-14T11:38:39.125Z,524.80
2018-12-14T11:41:09.496Z,526.82
2018-12-14T11:43:37.890Z,517.87
2018-12-14T11:46:06.181Z,520.48
2018-12-14T11:48:34.581Z,526.40
2018-12-14T11:51:02.960Z,532.98
2018-12-14T11:53:31.421Z,530.08
2018-12-14T11:55:59.824Z,536.50
2018-12-14T12:01:25.598Z,536.23
2018-12-14T12:03:53.942Z,532.38
2018-12-14T12:06:22.325Z,520.10
2018-12-14T12:08:51.413Z,526.77
2018-12-14T12:11:19.792Z,521.33
2018-12-14T12:13:48.145Z,533.10
2018-12-14T12:16:16.524Z,521.53
2018-12-14T12:18:44.844Z,522.35
2018-12-14T12:21:13.195Z,523.65
2018-12-14T12:23:41.635Z,527.27
2018-12-14T12:26:10.051Z,519.52
2018-12-14T12:28:38.345Z,523.00
2018-12-14T12:34:04.579Z,529.77
2018-12-14T12:36:32.896Z,529.92
2018-12-14T12:39:01.419Z,530.15
2018-12-14T12:41:29.764Z,528.05
2018-12-14T12:43:58.104Z,530.63
2018-12-14T12:46:26.486Z,528.95
2018-12-14T12:48:55.039Z,532.42
2018-12-14T12:51:24.215Z,538.35
2018-12-14T12:53:52.559Z,531.83
2018-12-14T12:56:21.429Z,531.00
2018-12-14T12:58:50.043Z,536.92
2018-12-14T13:01:18.493Z,536.60
2018-12-14T13:03:46.858Z,533.10
2018-12-14T13:06:15.212Z,543.05
2018-12-14T13:08:43.566Z,538.45
2018-12-14T13:11:12.325Z,540.33
2018-12-14T13:13:41.107Z,540.65
2018-12-14T13:16:09.446Z,536.40
2018-12-14T13:18:38.394Z,531.75
2018-12-14T13:21:07.735Z,531.73
2018-12-14T13:23:36.504Z,534.55
2018-12-14T13:26:05.970Z,536.25
2018-12-14T13:28:36.723Z,537.87
2018-12-14T13:31:06.347Z,549.60
2018-12-14T13:33:35.039Z,540.47
2018-12-14T13:36:03.660Z,543.70
2018-12-14T13:38:32.470Z,539.75
2018-12-14T13:41:00.926Z,539.85
2018-12-14T13:43:29.549Z,536.98
2018-12-14T13:45:57.900Z,535.90
2018-12-14T13:48:26.405Z,544.13
2018-12-14T13:50:54.849Z,534.22
2018-12-14T13:53:23.153Z,540.25
2018-12-14T13:55:51.809Z,534.13
2018-12-14T13:58:20.567Z,535.55
2018-12-14T14:00:50.230Z,532.73
2018-12-14T14:03:18.702Z,539.23
2018-12-14T14:05:47.396Z,538.17
2018-12-14T14:08:15.840Z,536.85
2018-12-14T14:10:44.181Z,552.58
2018-12-14T14:13:12.547Z,537.25
2018-12-14T14:15:40.951Z,533.30
2018-12-14T14:18:09.908Z,533.02
2018-12-14T14:20:38.231Z,538.45
2018-12-14T14:23:06.567Z,541.90
2018-12-14T14:25:35.964Z,534.55
2018-12-14T14:28:05.228Z,543.30
2018-12-14T14:30:35.042Z,540.52
2018-12-14T14:33:03.366Z,538.15
2018-12-14T14:35:32.606Z,540.77
2018-12-14T14:38:01.016Z,543.13
2018-12-14T14:40:29.403Z,534.17
2018-12-14T14:42:57.826Z,536.98
2018-12-14T14:45:26.192Z,539.92
2018-12-14T14:47:54.607Z,542.77
2018-12-14T14:50:22.926Z,536.17
2018-12-14T14:52:51.365Z,536.80
2018-12-14T14:55:19.669Z,537.80
2018-12-14T14:57:48.156Z,542.22
2018-12-14T15:00:16.781Z,551.13
2018-12-14T15:02:45.171Z,549.20
2018-12-14T15:05:13.558Z,547.00
2018-12-14T15:07:41.884Z,552.92
2018-12-14T15:10:10.281Z,546.35
2018-12-14T15:12:39.225Z,542.80
2018-12-14T15:15:07.815Z,534.05
2018-12-14T15:17:36.224Z,529.85
2018-12-14T15:20:05.035Z,526.37
2018-12-14T15:22:34.304Z,530.10
2018-12-14T15:25:02.808Z,519.15
2018-12-14T15:27:31.111Z,528.38
2018-12-14T15:30:02.169Z,527.73
2018-12-14T15:32:30.469Z,530.22
2018-12-14T15:34:59.329Z,527.88
2018-12-14T15:37:28.659Z,533.62
2018-12-14T15:39:57.969Z,519.75
2018-12-14T15:42:26.333Z,524.92
2018-12-14T15:44:55.350Z,524.60
2018-12-14T15:47:23.758Z,529.33
2018-12-14T15:49:52.065Z,534.37
2018-12-14T15:52:21.982Z,545.10
2018-12-14T15:54:50.604Z,539.67
2018-12-14T15:57:19.240Z,530.90
2018-12-14T15:59:47.681Z,542.22
2018-12-14T16:02:16.134Z,548.65
2018-12-14T16:04:45.196Z,540.85
2018-12-14T16:07:13.694Z,545.77
2018-12-14T16:09:42.612Z,546.57
2018-12-14T16:12:10.995Z,537.38
2018-12-14T16:14:39.452Z,534.15
2018-12-14T16:17:08.773Z,538.77
2018-12-14T16:19:37.420Z,540.52
2018-12-14T16:22:05.821Z,538.67
2018-12-14T16:24:35.195Z,541.75
2018-12-14T16:27:04.169Z,535.78
2018-12-14T16:29:33.062Z,561.65
2018-12-14T16:32:01.506Z,553.75
2018-12-14T16:34:29.839Z,540.28
2018-12-14T16:36:58.232Z,540.50
2018-12-14T16:39:26.694Z,543.25
2018-12-14T16:41:55.305Z,545.85
2018-12-14T16:44:23.697Z,551.00
2018-12-14T16:46:52.120Z,557.35
2018-12-14T16:49:20.858Z,553.45
2018-12-14T16:54:48.346Z,562.20
2018-12-14T16:57:17.187Z,560.17
2018-12-14T16:59:45.570Z,545.02
2018-12-14T17:02:13.894Z,545.93
2018-12-14T17:04:42.283Z,550.53
2018-12-14T17:07:10.672Z,552.90
2018-12-14T17:09:39.045Z,544.80
2018-12-14T17:12:07.408Z,544.23
2018-12-14T17:14:35.698Z,538.25
2018-12-14T17:17:04.190Z,544.17
2018-12-14T17:19:33.642Z,539.97
2018-12-14T17:22:02.070Z,541.83
2018-12-14T17:24:31.133Z,554.73
2018-12-14T17:26:59.588Z,544.83
2018-12-14T17:29:29.500Z,548.25
2018-12-14T17:31:57.886Z,543.83
2018-12-14T17:34:26.717Z,540.42
2018-12-14T17:36:55.766Z,544.85
2018-12-14T17:39:24.192Z,529.87
2018-12-14T17:41:52.561Z,540.90
2018-12-14T17:44:20.887Z,535.50
2018-12-14T17:46:49.375Z,532.65
2018-12-14T17:49:17.705Z,532.50
2018-12-14T17:51:46.104Z,536.10
2018-12-14T17:54:14.432Z,532.73
2018-12-14T17:56:43.033Z,541.75
2018-12-14T17:59:11.419Z,548.37
2018-12-14T18:01:39.909Z,542.05
2018-12-14T18:04:08.367Z,528.02
2018-12-14T18:06:36.703Z,541.10
2018-12-14T18:09:05.356Z,534.00
2018-12-14T18:11:33.788Z,538.12
2018-12-14T18:14:02.112Z,531.05
2018-12-14T18:16:30.948Z,537.00
2018-12-14T18:18:59.297Z,539.75
2018-12-14T18:21:27.645Z,541.27
2018-12-14T18:23:55.973Z,536.67
2018-12-14T18:26:24.354Z,529.83
2018-12-14T18:28:52.633Z,531.67
2018-12-14T18:31:21.042Z,524.00
2018-12-14T18:33:50.280Z,529.25
2018-12-14T18:36:18.793Z,539.08
2018-12-14T18:38:47.154Z,539.83
2018-12-14T18:41:15.557Z,542.67
2018-12-14T18:43:46.316Z,535.25
2018-12-14T18:46:14.784Z,534.58
2018-12-14T18:48:43.165Z,529.25
2018-12-14T18:51:11.584Z,524.00
2018-12-14T18:53:42.113Z,534.37
2018-12-14T18:56:10.468Z,534.53
2018-12-14T18:58:39.114Z,540.15
2018-12-14T19:04:04.713Z,527.20
2018-12-14T19:06:33.064Z,536.92
2018-12-14T19:09:01.620Z,529.58
2018-12-14T19:11:29.994Z,527.00
2018-12-14T19:13:58.330Z,524.80
2018-12-14T19:16:26.659Z,522.70
2018-12-14T19:18:55.105Z,523.37
2018-12-14T19:21:23.786Z,523.85
2018-12-14T19:23:52.133Z,522.07
2018-12-14T19:26:21.094Z,526.58
2018-12-14T19:28:49.496Z,534.37
2018-12-14T19:31:18.728Z,542.63
2018-12-14T19:33:47.086Z,539.67
2018-12-14T19:36:15.473Z,543.75
2018-12-14T19:38:43.818Z,528.35
2018-12-14T19:41:12.267Z,529.90
2018-12-14T19:43:40.573Z,520.77
2018-12-14T19:46:08.965Z,522.60
2018-12-14T19:48:38.223Z,521.60
2018-12-14T19:51:06.608Z,521.48
2018-12-14T19:53:35.438Z,519.85
2018-12-14T19:56:03.969Z,518.27
2018-12-14T19:58:32.825Z,523.23
2018-12-14T20:01:01.257Z,521.75
2018-12-14T20:03:30.172Z,519.55
2018-12-14T20:05:58.836Z,521.95
2018-12-14T20:08:27.403Z,525.70
2018-12-14T20:10:55.934Z,523.73
2018-12-14T20:13:24.352Z,527.33
2018-12-14T20:15:57.479Z,532.40
2018-12-14T20:18:24.312Z,528.88
2018-12-14T20:20:52.703Z,537.00
2018-12-14T20:23:21.047Z,534.35
2018-12-14T20:25:49.390Z,532.00
2018-12-14T20:28:17.796Z,521.05
2018-12-14T20:30:46.258Z,522.65
2018-12-14T20:33:14.906Z,519.75
2018-12-14T20:35:43.263Z,519.77
2018-12-14T20:38:11.549Z,523.97
2018-12-14T20:40:40.999Z,524.10
2018-12-14T20:43:09.347Z,521.08
2018-12-14T20:45:37.665Z,521.20
2018-12-14T20:48:06.081Z,528.12
2018-12-14T20:53:33.534Z,531.92
2018-12-14T20:56:01.872Z,523.17
2018-12-14T20:58:30.289Z,523.42
2018-12-14T21:00:58.668Z,525.50
2018-12-14T21:03:27.653Z,520.00
2018-12-14T21:05:56.730Z,518.10
2018-12-14T21:08:25.042Z,524.15
2018-12-14T21:10:53.693Z,518.67
2018-12-14T21:13:22.388Z,521.60
2018-12-14T21:15:50.878Z,522.17
2018-12-14T21:18:19.216Z,516.48
2018-12-14T21:20:47.895Z,517.95
2018-12-14T21:23:16.215Z,520.17
2018-12-14T21:25:44.522Z,520.90
2018-12-14T21:28:12.919Z,516.48
2018-12-14T21:30:41.504Z,524.95
2018-12-14T21:33:09.919Z,525.72
2018-12-14T21:35:38.613Z,528.35
2018-12-14T21:38:06.968Z,521.48
2018-12-14T21:40:35.334Z,526.98
2018-12-14T21:43:04.415Z,520.65
2018-12-14T21:45:32.799Z,526.92
2018-12-14T21:48:01.227Z,527.02
2018-12-14T21:50:29.686Z,521.58
2018-12-14T21:52:58.008Z,523.05
2018-12-14T21:55:26.468Z,516.10
2018-12-14T21:57:54.970Z,516.00
2018-12-14T22:00:23.389Z,512.90
2018-12-14T22:02:51.717Z,521.22
2018-12-14T22:05:20.470Z,512.35
2018-12-14T22:07:48.859Z,517.85
2018-12-14T22:10:17.275Z,519.10
2018-12-14T22:12:45.629Z,519.45
2018-12-14T22:15:13.951Z,519.13
2018-12-14T22:17:43.166Z,517.40
2018-12-14T22:20:11.820Z,531.67
2018-12-14T22:22:40.163Z,526.10
2018-12-14T22:25:08.984Z,543.27
2018-12-14T22:27:37.309Z,539.55
2018-12-14T22:30:06.827Z,533.72
2018-12-14T22:32:35.258Z,535.13
2018-12-14T22:35:04.303Z,530.75
2018-12-14T22:37:32.694Z,527.08
2018-12-14T22:40:01.080Z,517.08
2018-12-14T22:42:29.465Z,520.95
2018-12-14T22:44:57.843Z,519.17
2018-12-14T22:47:26.455Z,518.67
2018-12-14T22:49:54.843Z,512.83
2018-12-14T22:52:23.249Z,527.00
2018-12-14T22:54:51.893Z,527.50
2018-12-14T22:57:20.194Z,517.30
2018-12-14T22:59:48.758Z,517.35
2018-12-14T23:02:17.413Z,522.98
2018-12-14T23:04:45.940Z,527.85
2018-12-14T23:07:15.325Z,523.90
2018-12-14T23:09:44.087Z,517.70
2018-12-14T23:12:12.418Z,528.70
2018-12-14T23:14:40.778Z,524.48
2018-12-14T23:17:09.322Z,525.33
2018-12-14T23:19:37.866Z,521.33
2018-12-14T23:22:06.593Z,523.30
2018-12-14T23:24:34.920Z,516.53
2018-12-14T23:27:03.351Z,525.08
2018-12-14T23:29:31.790Z,520.20
2018-12-14T23:32:00.135Z,524.52
2018-12-14T23:34:28.505Z,524.20
2018-12-14T23:36:56.817Z,516.67
2018-12-14T23:39:25.142Z,523.08
2018-12-14T23:41:53.485Z,524.50
2018-12-14T23:44:22.158Z,521.80
2018-12-14T23:46:50.539Z,521.70
2018-12-14T23:49:19.292Z,531.02
2018-12-14T23:51:47.591Z,525.65
2018-12-14T23:54:16.113Z,523.55
2018-12-14T23:56:44.705Z,524.27
2018-12-14T23:59:13.730Z,519.25
